sensor_id;sensor_type;location;lat;lon;timestamp;pressure;altitude;pressure_sealevel;temperature;humidity
64080;BME280;51042;49.696;10.808;2022-10-12T00:00:47;99242.28;;;8.30;100.00
64080;BME280;51042;49.696;10.808;2022-10-12T00:03:13;99241.16;;;8.27;100.00
64080;BME280;51042;49.696;10.808;2022-10-12T00:05:39;99232.16;;;8.27;100.00
64080;BME280;51042;49.696;10.808;2022-10-12T00:08:04;99234.50;;;8.25;100.00
64080;BME280;51042;49.696;10.808;2022-10-12T00:10:30;99235.72;;;8.20;100.00
64080;BME280;51042;49.696;10.808;2022-10-12T00:12:55;99231.41;;;8.19;100.00
64080;BME280;51042;49.696;10.808;2022-10-12T00:15:20;99237.69;;;8.16;100.00
64080;BME280;51042;49.696;10.808;2022-10-12T00:17:46;99235.34;;;8.14;100.00
64080;BME280;51042;49.696;10.808;2022-10-12T00:20:11;99230.66;;;8.11;100.00
64080;BME280;51042;49.696;10.808;2022-10-12T00:22:37;99237.31;;;8.10;100.00
64080;BME280;51042;49.696;10.808;2022-10-12T00:25:02;99235.00;;;8.09;100.00
64080;BME280;51042;49.696;10.808;2022-10-12T00:27:28;99237.72;;;8.05;100.00
64080;BME280;51042;49.696;10.808;2022-10-12T00:29:53;99234.63;;;8.03;100.00
64080;BME280;51042;49.696;10.808;2022-10-12T00:32:18;99229.56;;;7.98;100.00
64080;BME280;51042;49.696;10.808;2022-10-12T00:34:44;99231.91;;;7.96;100.00
64080;BME280;51042;49.696;10.808;2022-10-12T00:37:09;99233.91;;;7.92;100.00
64080;BME280;51042;49.696;10.808;2022-10-12T00:39:35;99228.81;;;7.91;100.00
64080;BME280;51042;49.696;10.808;2022-10-12T00:42:00;99226.47;;;7.89;100.00
64080;BME280;51042;49.696;10.808;2022-10-12T00:47:04;99226.88;;;7.80;100.00
64080;BME280;51042;49.696;10.808;2022-10-12T00:49:34;99233.97;;;7.74;100.00
64080;BME280;51042;49.696;10.808;2022-10-12T00:52:02;99226.16;;;7.66;100.00
64080;BME280;51042;49.696;10.808;2022-10-12T00:54:32;99226.16;;;7.66;100.00
64080;BME280;51042;49.696;10.808;2022-10-12T00:57:02;99219.16;;;7.68;100.00
64080;BME280;51042;49.696;10.808;2022-10-12T00:59:31;99216.78;;;7.70;100.00
64080;BME280;51042;49.696;10.808;2022-10-12T01:02:00;99217.16;;;7.69;100.00
64080;BME280;51042;49.696;10.808;2022-10-12T01:04:26;99226.56;;;7.64;100.00
64080;BME280;51042;49.696;10.808;2022-10-12T01:06:52;99221.88;;;7.58;100.00
64080;BME280;51042;49.696;10.808;2022-10-12T01:09:17;99218.41;;;7.50;100.00
64080;BME280;51042;49.696;10.808;2022-10-12T01:11:43;99221.94;;;7.51;100.00
64080;BME280;51042;49.696;10.808;2022-10-12T01:14:09;99210.63;;;7.49;100.00
64080;BME280;51042;49.696;10.808;2022-10-12T01:16:37;99212.97;;;7.43;100.00
64080;BME280;51042;49.696;10.808;2022-10-12T01:22:13;99219.22;;;7.29;100.00
64080;BME280;51042;49.696;10.808;2022-10-12T01:24:52;99220.78;;;7.27;100.00
64080;BME280;51042;49.696;10.808;2022-10-12T01:30:17;99222.75;;;7.16;100.00
64080;BME280;51042;49.696;10.808;2022-10-12T01:33:07;99215.34;;;7.06;100.00
64080;BME280;51042;49.696;10.808;2022-10-12T01:38:42;99224.31;;;6.99;100.00
64080;BME280;51042;49.696;10.808;2022-10-12T01:41:29;99226.66;;;6.93;100.00
64080;BME280;51042;49.696;10.808;2022-10-12T01:43:59;99225.91;;;6.89;100.00
64080;BME280;51042;49.696;10.808;2022-10-12T01:48:51;99220.41;;;6.86;100.00
64080;BME280;51042;49.696;10.808;2022-10-12T01:54:09;99233.69;;;6.77;100.00
64080;BME280;51042;49.696;10.808;2022-10-12T01:56:47;99222.38;;;6.75;100.00
64080;BME280;51042;49.696;10.808;2022-10-12T01:59:41;99224.34;;;6.71;100.00
64080;BME280;51042;49.696;10.808;2022-10-12T02:04:50;99222.38;;;6.68;100.00
64080;BME280;51042;49.696;10.808;2022-10-12T02:10:00;99213.41;;;6.56;100.00
64080;BME280;51042;49.696;10.808;2022-10-12T02:12:29;99214.97;;;6.54;100.00
64080;BME280;51042;49.696;10.808;2022-10-12T02:14:59;99211.06;;;6.51;100.00
64080;BME280;51042;49.696;10.808;2022-10-12T02:17:27;99210.66;;;6.49;100.00
64080;BME280;51042;49.696;10.808;2022-10-12T02:19:55;99209.91;;;6.49;100.00
64080;BME280;51042;49.696;10.808;2022-10-12T02:22:23;99214.56;;;6.45;100.00
64080;BME280;51042;49.696;10.808;2022-10-12T02:24:52;99215.31;;;6.38;100.00
64080;BME280;51042;49.696;10.808;2022-10-12T02:27:21;99210.66;;;6.35;100.00
64080;BME280;51042;49.696;10.808;2022-10-12T02:29:49;99216.47;;;6.34;100.00
64080;BME280;51042;49.696;10.808;2022-10-12T02:32:28;99210.66;;;6.35;100.00
64080;BME280;51042;49.696;10.808;2022-10-12T02:35:22;99212.59;;;6.31;100.00
64080;BME280;51042;49.696;10.808;2022-10-12T02:37:56;99209.44;;;6.26;100.00
64080;BME280;51042;49.696;10.808;2022-10-12T02:40:35;99206.75;;;6.29;100.00
64080;BME280;51042;49.696;10.808;2022-10-12T02:43:14;99204.03;;;6.29;100.00
64080;BME280;51042;49.696;10.808;2022-10-12T02:45:45;99204.00;;;6.33;100.00
64080;BME280;51042;49.696;10.808;2022-10-12T02:48:19;99208.69;;;6.32;100.00
64080;BME280;51042;49.696;10.808;2022-10-12T02:50:47;99205.56;;;6.34;100.00
64080;BME280;51042;49.696;10.808;2022-10-12T02:53:16;99195.44;;;6.38;100.00
64080;BME280;51042;49.696;10.808;2022-10-12T02:55:46;99196.25;;;6.42;100.00
64080;BME280;51042;49.696;10.808;2022-10-12T02:58:13;99191.56;;;6.46;100.00
64080;BME280;51042;49.696;10.808;2022-10-12T03:00:38;99189.22;;;6.44;100.00
64080;BME280;51042;49.696;10.808;2022-10-12T03:03:03;99194.69;;;6.44;100.00
64080;BME280;51042;49.696;10.808;2022-10-12T03:05:28;99188.84;;;6.42;100.00
64080;BME280;51042;49.696;10.808;2022-10-12T03:07:54;99189.63;;;6.39;100.00
64080;BME280;51042;49.696;10.808;2022-10-12T03:10:19;99185.34;;;6.35;100.00
64080;BME280;51042;49.696;10.808;2022-10-12T03:12:44;99194.28;;;6.28;100.00
64080;BME280;51042;49.696;10.808;2022-10-12T03:15:10;99193.09;;;6.22;100.00
64080;BME280;51042;49.696;10.808;2022-10-12T03:17:35;99193.47;;;6.17;100.00
64080;BME280;51042;49.696;10.808;2022-10-12T03:20:00;99189.56;;;6.14;100.00
64080;BME280;51042;49.696;10.808;2022-10-12T03:22:25;99197.75;;;6.11;100.00
64080;BME280;51042;49.696;10.808;2022-10-12T03:24:51;99195.78;;;6.08;100.00
64080;BME280;51042;49.696;10.808;2022-10-12T03:27:16;99196.19;;;6.10;100.00
64080;BME280;51042;49.696;10.808;2022-10-12T03:29:41;99193.06;;;6.08;100.00
64080;BME280;51042;49.696;10.808;2022-10-12T03:32:07;99197.31;;;6.02;100.00
64080;BME280;51042;49.696;10.808;2022-10-12T03:34:32;99188.75;;;6.00;100.00
64080;BME280;51042;49.696;10.808;2022-10-12T03:36:57;99191.50;;;6.07;100.00
64080;BME280;51042;49.696;10.808;2022-10-12T03:39:23;99189.16;;;6.09;100.00
64080;BME280;51042;49.696;10.808;2022-10-12T03:41:48;99192.28;;;6.04;100.00
64080;BME280;51042;49.696;10.808;2022-10-12T03:44:13;99188.75;;;6.00;100.00
64080;BME280;51042;49.696;10.808;2022-10-12T03:46:38;99186.00;;;5.96;100.00
64080;BME280;51042;49.696;10.808;2022-10-12T03:49:04;99189.94;;;5.99;100.00
64080;BME280;51042;49.696;10.808;2022-10-12T03:51:29;99188.34;;;5.98;100.00
64080;BME280;51042;49.696;10.808;2022-10-12T03:53:54;99182.13;;;5.94;100.00
64080;BME280;51042;49.696;10.808;2022-10-12T03:56:20;99186.78;;;5.90;100.00
64080;BME280;51042;49.696;10.808;2022-10-12T03:58:45;99187.09;;;5.85;100.00
64080;BME280;51042;49.696;10.808;2022-10-12T04:01:11;99192.16;;;5.79;100.00
64080;BME280;51042;49.696;10.808;2022-10-12T04:03:36;99194.88;;;5.75;100.00
64080;BME280;51042;49.696;10.808;2022-10-12T04:06:01;99191.75;;;5.73;100.00
64080;BME280;51042;49.696;10.808;2022-10-12T04:08:27;99194.84;;;5.68;100.00
64080;BME280;51042;49.696;10.808;2022-10-12T04:10:52;99197.94;;;5.67;100.00
64080;BME280;51042;49.696;10.808;2022-10-12T04:13:18;99186.63;;;5.61;100.00
64080;BME280;51042;49.696;10.808;2022-10-12T04:15:44;99184.28;;;5.56;100.00
64080;BME280;51042;49.696;10.808;2022-10-12T04:18:09;99186.22;;;5.52;100.00
64080;BME280;51042;49.696;10.808;2022-10-12T04:20:35;99185.81;;;5.50;100.00
64080;BME280;51042;49.696;10.808;2022-10-12T04:23:01;99189.72;;;5.53;100.00
64080;BME280;51042;49.696;10.808;2022-10-12T04:25:26;99190.50;;;5.53;100.00
64080;BME280;51042;49.696;10.808;2022-10-12T04:27:51;99194.75;;;5.54;100.00
64080;BME280;51042;49.696;10.808;2022-10-12T04:30:17;99195.16;;;5.56;100.00
64080;BME280;51042;49.696;10.808;2022-10-12T04:32:42;99192.03;;;5.54;100.00
64080;BME280;51042;49.696;10.808;2022-10-12T04:35:08;99196.31;;;5.55;100.00
64080;BME280;51042;49.696;10.808;2022-10-12T04:37:33;99204.13;;;5.53;100.00
64080;BME280;51042;49.696;10.808;2022-10-12T04:39:58;99201.38;;;5.53;100.00
64080;BME280;51042;49.696;10.808;2022-10-12T04:42:24;99199.84;;;5.56;100.00
64080;BME280;51042;49.696;10.808;2022-10-12T04:44:49;99205.31;;;5.63;100.00
64080;BME280;51042;49.696;10.808;2022-10-12T04:47:14;99203.00;;;5.65;100.00
64080;BME280;51042;49.696;10.808;2022-10-12T04:49:40;99207.66;;;5.64;100.00
64080;BME280;51042;49.696;10.808;2022-10-12T04:52:05;99205.72;;;5.65;100.00
64080;BME280;51042;49.696;10.808;2022-10-12T04:54:30;99212.75;;;5.69;100.00
64080;BME280;51042;49.696;10.808;2022-10-12T04:56:57;99210.06;;;5.77;100.00
64080;BME280;51042;49.696;10.808;2022-10-12T04:59:22;99213.94;;;5.79;100.00
64080;BME280;51042;49.696;10.808;2022-10-12T05:01:48;99209.31;;;5.83;100.00
64080;BME280;51042;49.696;10.808;2022-10-12T05:04:13;99217.91;;;5.89;100.00
64080;BME280;51042;49.696;10.808;2022-10-12T05:06:39;99217.13;;;5.92;100.00
64080;BME280;51042;49.696;10.808;2022-10-12T05:09:04;99215.22;;;5.96;100.00
64080;BME280;51042;49.696;10.808;2022-10-12T05:11:30;99212.50;;;5.99;100.00
64080;BME280;51042;49.696;10.808;2022-10-12T05:13:55;99213.69;;;6.05;100.00
64080;BME280;51042;49.696;10.808;2022-10-12T05:16:20;99206.66;;;6.08;100.00
64080;BME280;51042;49.696;10.808;2022-10-12T05:18:46;99210.59;;;6.10;100.00
64080;BME280;51042;49.696;10.808;2022-10-12T05:21:11;99212.94;;;6.15;100.00
64080;BME280;51042;49.696;10.808;2022-10-12T05:23:37;99213.34;;;6.21;100.00
64080;BME280;51042;49.696;10.808;2022-10-12T05:26:02;99206.34;;;6.24;100.00
64080;BME280;51042;49.696;10.808;2022-10-12T05:28:28;99208.69;;;6.25;100.00
64080;BME280;51042;49.696;10.808;2022-10-12T05:30:53;99213.34;;;6.28;100.00
64080;BME280;51042;49.696;10.808;2022-10-12T05:33:18;99214.53;;;6.34;100.00
64080;BME280;51042;49.696;10.808;2022-10-12T05:35:44;99216.50;;;6.37;100.00
64080;BME280;51042;49.696;10.808;2022-10-12T05:38:09;99214.94;;;6.47;100.00
64080;BME280;51042;49.696;10.808;2022-10-12T05:40:35;99221.97;;;6.51;100.00
64080;BME280;51042;49.696;10.808;2022-10-12T05:43:00;99211.84;;;6.55;100.00
64080;BME280;51042;49.696;10.808;2022-10-12T05:45:26;99227.06;;;6.60;100.00
64080;BME280;51042;49.696;10.808;2022-10-12T05:47:51;99220.44;;;6.61;100.00
64080;BME280;51042;49.696;10.808;2022-10-12T05:50:16;99222.38;;;6.61;100.00
64080;BME280;51042;49.696;10.808;2022-10-12T05:52:42;99221.59;;;6.64;100.00
64080;BME280;51042;49.696;10.808;2022-10-12T05:55:07;99218.09;;;6.63;100.00
64080;BME280;51042;49.696;10.808;2022-10-12T05:57:33;99218.88;;;6.64;100.00
64080;BME280;51042;49.696;10.808;2022-10-12T05:59:58;99223.16;;;6.65;100.00
64080;BME280;51042;49.696;10.808;2022-10-12T06:02:24;99226.25;;;6.63;100.00
64080;BME280;51042;49.696;10.808;2022-10-12T06:04:49;99221.59;;;6.60;100.00
64080;BME280;51042;49.696;10.808;2022-10-12T06:07:14;99225.09;;;6.53;100.00
64080;BME280;51042;49.696;10.808;2022-10-12T06:09:40;99225.06;;;6.50;100.00
64080;BME280;51042;49.696;10.808;2022-10-12T06:12:06;99229.38;;;6.47;100.00
64080;BME280;51042;49.696;10.808;2022-10-12T06:14:31;99233.25;;;6.46;100.00
64080;BME280;51042;49.696;10.808;2022-10-12T06:16:57;99224.31;;;6.53;100.00
64080;BME280;51042;49.696;10.808;2022-10-12T06:19:22;99224.31;;;6.56;100.00
64080;BME280;51042;49.696;10.808;2022-10-12T06:21:47;99224.31;;;6.60;100.00
64080;BME280;51042;49.696;10.808;2022-10-12T06:24:13;99223.94;;;6.65;100.00
64080;BME280;51042;49.696;10.808;2022-10-12T06:26:38;99224.34;;;6.71;100.00
64080;BME280;51042;49.696;10.808;2022-10-12T06:29:03;99226.28;;;6.84;100.00
64080;BME280;51042;49.696;10.808;2022-10-12T06:31:28;99227.06;;;7.03;100.00
64080;BME280;51042;49.696;10.808;2022-10-12T06:33:54;99230.56;;;7.21;100.00
64080;BME280;51042;49.696;10.808;2022-10-12T06:36:20;99232.88;;;7.36;99.81
64080;BME280;51042;49.696;10.808;2022-10-12T06:38:45;99237.13;;;7.52;98.64
64080;BME280;51042;49.696;10.808;2022-10-12T06:41:10;99230.88;;;7.51;97.79
64080;BME280;51042;49.696;10.808;2022-10-12T06:43:36;99245.31;;;7.62;98.07
64080;BME280;51042;49.696;10.808;2022-10-12T06:46:01;99240.97;;;7.72;97.07
64080;BME280;51042;49.696;10.808;2022-10-12T06:48:28;99242.88;;;7.82;96.38
64080;BME280;51042;49.696;10.808;2022-10-12T06:50:53;99246.00;;;7.84;96.67
64080;BME280;51042;49.696;10.808;2022-10-12T06:53:19;99251.47;;;7.80;96.87
64080;BME280;51042;49.696;10.808;2022-10-12T06:55:44;99246.75;;;7.95;96.24
64080;BME280;51042;49.696;10.808;2022-10-12T06:58:09;99253.41;;;7.91;95.63
64080;BME280;51042;49.696;10.808;2022-10-12T07:00:35;99253.06;;;7.78;96.47
64080;BME280;51042;49.696;10.808;2022-10-12T07:03:01;99250.28;;;7.89;97.06
64080;BME280;51042;49.696;10.808;2022-10-12T07:05:27;99249.47;;;8.02;96.27
64080;BME280;51042;49.696;10.808;2022-10-12T07:07:53;99259.19;;;8.07;95.93
64080;BME280;51042;49.696;10.808;2022-10-12T07:10:18;99251.81;;;8.00;96.02
64080;BME280;51042;49.696;10.808;2022-10-12T07:12:43;99251.81;;;8.04;96.08
64080;BME280;51042;49.696;10.808;2022-10-12T07:15:09;99252.94;;;8.10;96.46
64080;BME280;51042;49.696;10.808;2022-10-12T07:17:34;99251.38;;;8.16;95.89
64080;BME280;51042;49.696;10.808;2022-10-12T07:20:00;99255.97;;;8.30;95.86
64080;BME280;51042;49.696;10.808;2022-10-12T07:22:25;99252.81;;;8.42;95.88
64080;BME280;51042;49.696;10.808;2022-10-12T07:24:51;99256.69;;;8.48;96.46
64080;BME280;51042;49.696;10.808;2022-10-12T07:27:16;99255.81;;;8.58;96.20
64080;BME280;51042;49.696;10.808;2022-10-12T07:29:42;99254.63;;;8.66;94.05
64080;BME280;51042;49.696;10.808;2022-10-12T07:32:07;99254.53;;;8.80;94.00
64080;BME280;51042;49.696;10.808;2022-10-12T07:34:32;99259.69;;;8.68;92.37
64080;BME280;51042;49.696;10.808;2022-10-12T07:36:58;99255.88;;;9.10;91.44
64080;BME280;51042;49.696;10.808;2022-10-12T07:39:23;99262.53;;;9.53;88.55
64080;BME280;51042;49.696;10.808;2022-10-12T07:41:52;99265.31;;;9.46;89.12
64080;BME280;51042;49.696;10.808;2022-10-12T07:44:18;99261.50;;;10.08;87.27
64080;BME280;51042;49.696;10.808;2022-10-12T07:46:44;99262.38;;;10.62;84.32
64080;BME280;51042;49.696;10.808;2022-10-12T07:49:13;99258.63;;;11.02;81.57
64080;BME280;51042;49.696;10.808;2022-10-12T07:51:39;99261.22;;;11.13;81.21
64080;BME280;51042;49.696;10.808;2022-10-12T07:54:05;99256.22;;;11.08;81.04
64080;BME280;51042;49.696;10.808;2022-10-12T07:56:30;99261.28;;;11.10;80.73
64080;BME280;51042;49.696;10.808;2022-10-12T07:58:56;99260.56;;;11.29;78.87
64080;BME280;51042;49.696;10.808;2022-10-12T08:01:23;99256.28;;;10.78;80.18
64080;BME280;51042;49.696;10.808;2022-10-12T08:03:51;99253.47;;;10.28;82.83
64080;BME280;51042;49.696;10.808;2022-10-12T08:06:19;99252.00;;;10.16;84.82
64080;BME280;51042;49.696;10.808;2022-10-12T08:08:46;99251.44;;;9.98;85.73
64080;BME280;51042;49.696;10.808;2022-10-12T08:11:13;99256.00;;;10.11;85.72
64080;BME280;51042;49.696;10.808;2022-10-12T08:13:39;99254.25;;;10.28;85.71
64080;BME280;51042;49.696;10.808;2022-10-12T08:16:07;99252.88;;;10.09;86.45
64080;BME280;51042;49.696;10.808;2022-10-12T08:18:35;99254.91;;;10.02;88.23
64080;BME280;51042;49.696;10.808;2022-10-12T08:21:04;99253.88;;;10.26;86.61
64080;BME280;51042;49.696;10.808;2022-10-12T08:23:30;99246.81;;;10.25;86.83
64080;BME280;51042;49.696;10.808;2022-10-12T08:25:56;99247.88;;;10.35;86.45
64080;BME280;51042;49.696;10.808;2022-10-12T08:28:23;99250.66;;;10.31;85.82
64080;BME280;51042;49.696;10.808;2022-10-12T08:30:49;99241.88;;;10.43;85.51
64080;BME280;51042;49.696;10.808;2022-10-12T08:33:15;99243.63;;;10.60;85.95
64080;BME280;51042;49.696;10.808;2022-10-12T08:35:42;99236.63;;;10.79;85.62
64080;BME280;51042;49.696;10.808;2022-10-12T08:38:09;99226.44;;;10.80;84.86
64080;BME280;51042;49.696;10.808;2022-10-12T08:40:40;99224.47;;;10.80;84.99
64080;BME280;51042;49.696;10.808;2022-10-12T08:45:59;99220.13;;;10.83;86.20
64080;BME280;51042;49.696;10.808;2022-10-12T08:48:29;99224.47;;;11.03;85.83
64080;BME280;51042;49.696;10.808;2022-10-12T08:51:04;99226.28;;;11.37;83.98
64080;BME280;51042;49.696;10.808;2022-10-12T08:56:25;99215.75;;;11.75;82.56
64080;BME280;51042;49.696;10.808;2022-10-12T08:58:51;99224.16;;;11.88;81.86
64080;BME280;51042;49.696;10.808;2022-10-12T09:01:25;99216.97;;;12.13;80.44
64080;BME280;51042;49.696;10.808;2022-10-12T09:13:13;99213.88;;;12.96;78.27
64080;BME280;51042;49.696;10.808;2022-10-12T09:15:50;99226.38;;;12.84;79.14
64080;BME280;51042;49.696;10.808;2022-10-12T09:18:19;99227.03;;;12.56;79.24
64080;BME280;51042;49.696;10.808;2022-10-12T09:20:49;99226.16;;;12.59;81.32
64080;BME280;51042;49.696;10.808;2022-10-12T09:25:59;99224.66;;;13.06;78.79
64080;BME280;51042;49.696;10.808;2022-10-12T09:28:35;99231.69;;;12.75;79.35
64080;BME280;51042;49.696;10.808;2022-10-12T09:33:57;99220.09;;;13.32;78.45
64080;BME280;51042;49.696;10.808;2022-10-12T09:36:28;99221.97;;;13.52;77.77
64080;BME280;51042;49.696;10.808;2022-10-12T09:39:02;99216.81;;;13.37;77.80
64080;BME280;51042;49.696;10.808;2022-10-12T09:41:36;99218.50;;;13.47;78.56
64080;BME280;51042;49.696;10.808;2022-10-12T09:44:05;99218.47;;;13.64;77.67
64080;BME280;51042;49.696;10.808;2022-10-12T09:46:40;99222.75;;;13.65;77.64
64080;BME280;51042;49.696;10.808;2022-10-12T09:49:09;99223.41;;;13.85;76.77
64080;BME280;51042;49.696;10.808;2022-10-12T09:51:34;99217.59;;;13.67;77.88
64080;BME280;51042;49.696;10.808;2022-10-12T09:54:01;99223.50;;;14.23;76.66
64080;BME280;51042;49.696;10.808;2022-10-12T09:56:29;99216.38;;;14.63;74.86
64080;BME280;51042;49.696;10.808;2022-10-12T09:59:06;99214.03;;;15.00;74.15
64080;BME280;51042;49.696;10.808;2022-10-12T10:02:12;99196.88;;;15.52;73.01
64080;BME280;51042;49.696;10.808;2022-10-12T10:04:40;99196.63;;;15.59;73.00
64080;BME280;51042;49.696;10.808;2022-10-12T10:09:41;99206.41;;;15.95;71.02
64080;BME280;51042;49.696;10.808;2022-10-12T10:12:25;99209.38;;;15.78;70.71
64080;BME280;51042;49.696;10.808;2022-10-12T10:14:51;99196.94;;;15.83;71.83
64080;BME280;51042;49.696;10.808;2022-10-12T10:17:36;99205.66;;;16.25;70.26
64080;BME280;51042;49.696;10.808;2022-10-12T10:20:03;99204.06;;;16.77;68.59
64080;BME280;51042;49.696;10.808;2022-10-12T10:22:30;99205.88;;;16.61;68.78
64080;BME280;51042;49.696;10.808;2022-10-12T10:24:56;99206.72;;;16.18;68.88
64080;BME280;51042;49.696;10.808;2022-10-12T10:27:28;99200.44;;;16.27;71.52
64080;BME280;51042;49.696;10.808;2022-10-12T10:30:09;99203.44;;;15.89;72.02
64080;BME280;51042;49.696;10.808;2022-10-12T10:32:44;99207.66;;;16.55;69.71
64080;BME280;51042;49.696;10.808;2022-10-12T10:37:36;99209.81;;;16.91;68.70
64080;BME280;51042;49.696;10.808;2022-10-12T10:40:16;99209.34;;;16.93;69.30
64080;BME280;51042;49.696;10.808;2022-10-12T10:42:48;99207.50;;;16.99;68.25
64080;BME280;51042;49.696;10.808;2022-10-12T10:45:28;99203.69;;;17.05;68.42
64080;BME280;51042;49.696;10.808;2022-10-12T10:47:57;99202.81;;;17.27;68.45
64080;BME280;51042;49.696;10.808;2022-10-12T10:50:33;99202.41;;;16.79;69.14
64080;BME280;51042;49.696;10.808;2022-10-12T10:53:03;99192.94;;;17.26;69.21
64080;BME280;51042;49.696;10.808;2022-10-12T10:58:09;99192.00;;;17.47;68.00
64080;BME280;51042;49.696;10.808;2022-10-12T11:00:43;99202.06;;;17.72;66.69
64080;BME280;51042;49.696;10.808;2022-10-12T11:05:53;99202.75;;;18.27;66.21
64080;BME280;51042;49.696;10.808;2022-10-12T11:08:27;99187.22;;;18.11;64.38
64080;BME280;51042;49.696;10.808;2022-10-12T11:11:11;99189.53;;;17.40;67.19
64080;BME280;51042;49.696;10.808;2022-10-12T11:13:57;99188.91;;;17.18;66.89
64080;BME280;51042;49.696;10.808;2022-10-12T11:16:30;99188.94;;;17.27;69.11
64080;BME280;51042;49.696;10.808;2022-10-12T11:18:59;99184.28;;;17.97;67.10
64080;BME280;51042;49.696;10.808;2022-10-12T11:21:42;99182.47;;;18.45;66.31
64080;BME280;51042;49.696;10.808;2022-10-12T11:26:46;99176.59;;;18.85;64.53
64080;BME280;51042;49.696;10.808;2022-10-12T11:29:17;99164.28;;;18.77;64.29
64080;BME280;51042;49.696;10.808;2022-10-12T11:31:44;99166.38;;;18.58;65.92
64080;BME280;51042;49.696;10.808;2022-10-12T11:34:16;99159.91;;;18.43;66.14
64080;BME280;51042;49.696;10.808;2022-10-12T11:36:45;99163.03;;;18.77;65.61
64080;BME280;51042;49.696;10.808;2022-10-12T11:42:10;99158.56;;;18.38;66.37
64080;BME280;51042;49.696;10.808;2022-10-12T11:44:44;99153.25;;;18.16;67.19
64080;BME280;51042;49.696;10.808;2022-10-12T11:50:05;99156.47;;;18.90;66.36
64080;BME280;51042;49.696;10.808;2022-10-12T11:52:53;99146.56;;;19.36;64.49
64080;BME280;51042;49.696;10.808;2022-10-12T11:58:10;99145.09;;;19.65;62.76
64080;BME280;51042;49.696;10.808;2022-10-12T12:11:42;99143.22;;;18.10;68.18
64080;BME280;51042;49.696;10.808;2022-10-12T12:16:45;99125.03;;;18.98;64.95
64080;BME280;51042;49.696;10.808;2022-10-12T12:22:09;99131.47;;;19.43;64.63
64080;BME280;51042;49.696;10.808;2022-10-12T12:24:35;99123.56;;;19.12;65.21
64080;BME280;51042;49.696;10.808;2022-10-12T12:27:01;99123.00;;;18.42;67.46
64080;BME280;51042;49.696;10.808;2022-10-12T12:29:27;99117.31;;;18.04;68.56
64080;BME280;51042;49.696;10.808;2022-10-12T12:31:54;99117.41;;;17.67;70.36
64080;BME280;51042;49.696;10.808;2022-10-12T12:34:23;99112.16;;;17.42;71.04
64080;BME280;51042;49.696;10.808;2022-10-12T12:36:49;99107.00;;;17.95;70.13
64080;BME280;51042;49.696;10.808;2022-10-12T12:39:27;99113.69;;;18.63;67.80
64080;BME280;51042;49.696;10.808;2022-10-12T12:41:55;99104.28;;;19.23;65.40
64080;BME280;51042;49.696;10.808;2022-10-12T12:52:11;99093.94;;;19.38;62.87
64080;BME280;51042;49.696;10.808;2022-10-12T12:55:07;99103.69;;;19.58;62.50
64080;BME280;51042;49.696;10.808;2022-10-12T13:08:46;99085.66;;;18.43;66.51
64080;BME280;51042;49.696;10.808;2022-10-12T13:14:27;99077.97;;;19.09;64.59
64080;BME280;51042;49.696;10.808;2022-10-12T13:19:32;99071.63;;;19.77;63.48
64080;BME280;51042;49.696;10.808;2022-10-12T13:22:04;99076.53;;;19.67;62.20
64080;BME280;51042;49.696;10.808;2022-10-12T13:24:44;99080.19;;;19.20;63.54
64080;BME280;51042;49.696;10.808;2022-10-12T13:30:04;99078.38;;;19.17;63.32
64080;BME280;51042;49.696;10.808;2022-10-12T13:38:02;99064.78;;;19.92;62.76
64080;BME280;51042;49.696;10.808;2022-10-12T13:40:38;99060.94;;;20.05;62.89
64080;BME280;51042;49.696;10.808;2022-10-12T13:45:47;99062.25;;;20.09;62.25
64080;BME280;51042;49.696;10.808;2022-10-12T13:48:20;99061.63;;;20.00;62.34
64080;BME280;51042;49.696;10.808;2022-10-12T13:50:51;99054.19;;;20.11;61.27
64080;BME280;51042;49.696;10.808;2022-10-12T13:53:20;99059.47;;;20.09;62.46
64080;BME280;51042;49.696;10.808;2022-10-12T13:55:53;99049.34;;;20.26;61.99
64080;BME280;51042;49.696;10.808;2022-10-12T13:58:27;99057.50;;;19.95;61.81
64080;BME280;51042;49.696;10.808;2022-10-12T14:00:55;99045.41;;;19.83;63.30
64080;BME280;51042;49.696;10.808;2022-10-12T14:03:25;99052.72;;;19.66;63.41
64080;BME280;51042;49.696;10.808;2022-10-12T14:05:58;99050.69;;;19.52;63.93
64080;BME280;51042;49.696;10.808;2022-10-12T14:08:25;99044.72;;;19.44;63.69
64080;BME280;51042;49.696;10.808;2022-10-12T14:10:52;99055.72;;;19.09;64.97
64080;BME280;51042;49.696;10.808;2022-10-12T14:13:24;99048.13;;;19.10;64.53
64080;BME280;51042;49.696;10.808;2022-10-12T14:15:51;99046.53;;;19.18;65.00
64080;BME280;51042;49.696;10.808;2022-10-12T14:21:14;99046.56;;;18.47;68.25
64080;BME280;51042;49.696;10.808;2022-10-12T14:23:53;99050.06;;;18.23;69.06
64080;BME280;51042;49.696;10.808;2022-10-12T14:26:22;99051.66;;;17.82;70.53
64080;BME280;51042;49.696;10.808;2022-10-12T14:28:51;99059.75;;;17.62;71.56
64080;BME280;51042;49.696;10.808;2022-10-12T14:31:17;99057.72;;;17.53;71.93
64080;BME280;51042;49.696;10.808;2022-10-12T14:33:42;99050.34;;;17.50;71.76
64080;BME280;51042;49.696;10.808;2022-10-12T14:36:22;99054.38;;;17.31;72.54
64080;BME280;51042;49.696;10.808;2022-10-12T14:38:50;99062.09;;;16.91;73.54
64080;BME280;51042;49.696;10.808;2022-10-12T14:41:29;99058.66;;;16.68;75.06
64080;BME280;51042;49.696;10.808;2022-10-12T14:44:08;99052.31;;;16.59;75.33
64080;BME280;51042;49.696;10.808;2022-10-12T14:46:36;99061.31;;;16.72;75.15
64080;BME280;51042;49.696;10.808;2022-10-12T14:49:03;99051.00;;;16.72;74.78
64080;BME280;51042;49.696;10.808;2022-10-12T14:51:29;99046.19;;;16.64;75.07
64080;BME280;51042;49.696;10.808;2022-10-12T14:54:02;99045.75;;;16.65;75.35
64080;BME280;51042;49.696;10.808;2022-10-12T14:56:29;99049.91;;;16.70;75.25